Time;durP1;ratioP1;P1;durP2;ratioP2;P2;SDS_P1;SDS_P2;PMS_P1;PMS_P2;Temp;Humidity;BMP_temperature;BMP_pressure;BME280_temperature;BME280_humidity;BME280_pressure;Samples;Min_cycle;Max_cycle;Signal;HPM_P1;HPM_P2
2021/10/14 00:01:01;;;;;;;2.75;2.00;;;18.80;68.00;;;;;;4995213;28;88076;-73
2021/10/14 00:03:27;;;;;;;1.83;1.73;;;18.80;68.20;;;;;;4995555;28;88105;-73
2021/10/14 00:05:52;;;;;;;2.05;1.85;;;18.80;68.00;;;;;;5011493;28;95531;-73
2021/10/14 00:08:18;;;;;;;3.58;1.67;;;18.80;68.50;;;;;;4978887;28;91154;-73
2021/10/14 00:10:43;;;;;;;2.83;2.58;;;18.80;68.30;;;;;;5004633;28;89410;-73
2021/10/14 00:13:09;;;;;;;1.67;1.57;;;18.80;68.30;;;;;;5016274;28;88850;-73
2021/10/14 00:15:34;;;;;;;2.65;2.45;;;18.80;68.60;;;;;;5015819;28;89316;-73
2021/10/14 00:18:00;;;;;;;2.47;2.28;;;18.80;68.70;;;;;;5016436;28;89066;-73
2021/10/14 00:20:26;;;;;;;1.33;1.23;;;18.70;68.10;;;;;;4999414;28;88859;-72
2021/10/14 00:22:51;;;;;;;2.00;1.33;;;18.80;68.70;;;;;;5027157;27;88086;-73
2021/10/14 00:25:22;;;;;;;2.30;2.05;;;18.80;68.70;;;;;;4995734;28;108342;-73
2021/10/14 00:27:48;;;;;;;0.95;0.95;;;18.80;68.70;;;;;;5022579;27;88224;-72
2021/10/14 00:30:14;;;;;;;2.53;2.33;;;18.80;68.80;;;;;;5020373;27;88210;-73
2021/10/14 00:32:39;;;;;;;2.63;2.17;;;18.80;68.40;;;;;;4977803;28;90336;-72
2021/10/14 00:35:05;;;;;;;0.88;0.88;;;18.70;68.70;;;;;;5014118;28;89719;-72
2021/10/14 00:37:31;;;;;;;1.90;1.77;;;18.70;68.80;;;;;;4997562;28;89721;-72
2021/10/14 00:39:57;;;;;;;1.95;1.10;;;18.80;68.20;;;;;;5024963;27;88731;-73
2021/10/14 00:42:22;;;;;;;5.47;3.80;;;18.70;68.80;;;;;;5000812;28;88426;-73
2021/10/14 00:44:57;;;;;;;1.55;1.17;;;18.70;68.10;;;;;;4994827;28;88522;-73
2021/10/14 00:47:24;;;;;;;1.85;1.75;;;18.70;68.60;;;;;;5013517;28;90733;-72
2021/10/14 00:49:50;;;;;;;1.08;1.00;;;18.70;68.50;;;;;;5010085;28;89508;-72
2021/10/14 00:52:15;;;;;;;2.03;1.92;;;18.70;68.60;;;;;;4995543;28;88909;-72
2021/10/14 00:54:41;;;;;;;5.85;4.15;;;18.70;68.70;;;;;;5031068;27;88667;-72
2021/10/14 00:57:07;;;;;;;2.15;2.05;;;18.70;68.10;;;;;;4995051;28;88152;-72
2021/10/14 00:59:34;;;;;;;2.03;1.83;;;18.80;68.50;;;;;;5001557;28;88701;-72
2021/10/14 01:01:59;;;;;;;3.90;3.60;;;18.80;68.70;;;;;;5028117;28;88012;-71
2021/10/14 01:04:25;;;;;;;3.45;3.15;;;18.70;68.30;;;;;;5027364;28;93356;-71
2021/10/14 01:06:51;;;;;;;4.25;2.72;;;18.80;68.50;;;;;;5027995;28;88227;-72
2021/10/14 01:09:16;;;;;;;3.53;3.15;;;18.70;68.90;;;;;;5027507;28;98463;-74
2021/10/14 01:11:42;;;;;;;1.40;1.30;;;18.70;68.60;;;;;;5027374;28;88452;-71
2021/10/14 01:14:07;;;;;;;1.98;1.52;;;18.70;69.30;;;;;;4995590;28;89091;-72
2021/10/14 01:16:44;;;;;;;4.35;3.95;;;18.70;69.20;;;;;;4994440;28;88392;-72
2021/10/14 01:19:10;;;;;;;2.60;2.40;;;18.70;68.70;;;;;;4994369;28;88402;-72
2021/10/14 01:21:36;;;;;;;3.45;2.60;;;18.70;68.90;;;;;;4995704;28;87603;-71
2021/10/14 01:24:01;;;;;;;3.72;3.42;;;18.70;69.00;;;;;;5011292;28;91130;-71
2021/10/14 01:26:27;;;;;;;3.22;2.92;;;18.70;68.00;;;;;;4994313;28;88402;-71
2021/10/14 01:28:53;;;;;;;1.08;0.75;;;18.70;68.80;;;;;;4992781;28;89285;-72
2021/10/14 01:31:21;;;;;;;4.07;3.33;;;18.70;69.40;;;;;;4993557;28;88634;-71
2021/10/14 01:33:46;;;;;;;2.45;2.20;;;18.70;69.10;;;;;;4994090;28;88787;-72
2021/10/14 01:36:12;;;;;;;2.28;2.08;;;18.70;69.40;;;;;;4994041;28;88503;-72
2021/10/14 01:38:37;;;;;;;1.80;1.17;;;18.70;68.90;;;;;;4995840;28;88985;-71
2021/10/14 01:41:03;;;;;;;1.92;1.70;;;18.70;69.10;;;;;;4996399;28;90949;-72
2021/10/14 01:43:29;;;;;;;1.27;1.17;;;18.70;69.40;;;;;;4995743;28;88615;-73
2021/10/14 01:45:54;;;;;;;1.05;0.88;;;18.70;69.50;;;;;;4998486;28;87392;-72
2021/10/14 01:48:20;;;;;;;2.10;1.63;;;18.70;69.40;;;;;;4979641;28;88728;-73
2021/10/14 01:50:46;;;;;;;1.30;1.20;;;18.70;69.20;;;;;;4997786;28;88241;-72
2021/10/14 01:53:11;;;;;;;1.42;1.33;;;18.70;69.20;;;;;;4996089;28;89181;-73
2021/10/14 01:55:37;;;;;;;2.22;1.75;;;18.70;69.10;;;;;;4997485;28;89164;-73
2021/10/14 01:58:02;;;;;;;1.17;1.08;;;18.70;69.30;;;;;;4996710;28;88131;-72
2021/10/14 02:00:28;;;;;;;3.03;2.00;;;18.70;69.50;;;;;;4997477;28;88317;-71
2021/10/14 02:02:54;;;;;;;1.58;1.23;;;18.70;69.10;;;;;;4997688;28;88641;-72
2021/10/14 02:05:19;;;;;;;2.50;1.52;;;18.70;69.50;;;;;;4996044;28;90869;-72
2021/10/14 02:07:45;;;;;;;2.13;1.60;;;18.70;69.20;;;;;;4997423;28;88068;-71
2021/10/14 02:10:11;;;;;;;2.30;1.58;;;18.70;69.40;;;;;;4996772;28;87568;-72
2021/10/14 02:12:37;;;;;;;2.95;1.55;;;18.70;69.00;;;;;;4997176;28;88617;-73
2021/10/14 02:15:02;;;;;;;5.45;2.42;;;18.70;69.20;;;;;;4996079;28;88460;-72
2021/10/14 02:17:28;;;;;;;2.03;1.83;;;18.70;68.30;;;;;;4996607;28;88990;-72
2021/10/14 02:19:54;;;;;;;2.28;1.67;;;18.70;68.80;;;;;;4996580;28;105343;-72
2021/10/14 02:22:19;;;;;;;1.88;1.23;;;18.70;68.90;;;;;;4996952;28;88721;-72
2021/10/14 02:24:45;;;;;;;1.60;1.50;;;18.70;69.20;;;;;;4996030;28;92790;-72
2021/10/14 02:27:10;;;;;;;3.00;1.75;;;18.70;69.40;;;;;;4997073;28;95835;-73
2021/10/14 02:29:36;;;;;;;1.23;1.13;;;18.70;68.90;;;;;;4994834;28;111946;-72
2021/10/14 02:32:01;;;;;;;1.17;1.00;;;18.70;69.40;;;;;;4995702;28;93427;-72
2021/10/14 02:34:27;;;;;;;2.97;1.85;;;18.70;69.40;;;;;;4995688;28;91088;-72
2021/10/14 02:36:52;;;;;;;2.70;2.10;;;18.70;69.30;;;;;;4998206;28;88057;-73
2021/10/14 02:39:18;;;;;;;2.88;1.38;;;18.70;68.90;;;;;;4997222;28;97963;-72
2021/10/14 02:41:43;;;;;;;1.92;1.75;;;18.70;69.40;;;;;;4996067;28;93583;-71
2021/10/14 02:44:09;;;;;;;5.28;2.38;;;18.70;69.00;;;;;;5011588;28;110530;-72
2021/10/14 02:46:35;;;;;;;4.25;2.20;;;18.70;69.10;;;;;;4996927;28;99699;-72
2021/10/14 02:49:00;;;;;;;1.58;1.23;;;18.70;69.00;;;;;;4996540;28;89612;-72
2021/10/14 02:51:26;;;;;;;3.50;2.30;;;18.70;69.40;;;;;;4996482;28;89177;-74
2021/10/14 02:53:51;;;;;;;3.03;2.17;;;18.70;69.20;;;;;;4996144;28;88271;-74
2021/10/14 02:56:17;;;;;;;2.30;1.67;;;18.70;68.90;;;;;;4997322;28;95691;-74
2021/10/14 02:58:42;;;;;;;3.47;2.08;;;18.70;69.20;;;;;;4995605;28;102943;-74
2021/10/14 03:01:08;;;;;;;4.80;2.13;;;18.70;68.90;;;;;;4995951;28;100951;-74
2021/10/14 03:03:34;;;;;;;1.90;1.35;;;18.70;69.10;;;;;;4995473;28;91102;-74
2021/10/14 03:05:59;;;;;;;0.90;0.90;;;18.70;69.20;;;;;;4995090;28;88848;-71
2021/10/14 03:08:25;;;;;;;3.17;2.85;;;18.60;69.40;;;;;;4996270;28;88056;-72
2021/10/14 03:10:51;;;;;;;0.88;0.88;;;18.60;68.90;;;;;;4978992;28;90979;-71
2021/10/14 03:13:16;;;;;;;1.80;1.70;;;18.60;69.40;;;;;;4997073;28;88429;-71
2021/10/14 03:15:42;;;;;;;3.30;2.13;;;18.60;69.30;;;;;;4995742;28;88016;-71
2021/10/14 03:18:07;;;;;;;1.30;1.20;;;18.60;69.30;;;;;;4997191;28;88116;-71
2021/10/14 03:20:33;;;;;;;1.20;1.10;;;18.60;69.30;;;;;;4995492;28;88874;-71
2021/10/14 03:22:59;;;;;;;2.28;1.77;;;18.70;69.50;;;;;;4996039;28;88334;-71
2021/10/14 03:25:24;;;;;;;3.17;2.08;;;18.70;69.30;;;;;;4997213;28;88772;-72
2021/10/14 03:27:50;;;;;;;3.15;2.38;;;18.70;69.30;;;;;;4995428;28;88072;-72
2021/10/14 03:30:15;;;;;;;0.80;0.80;;;18.70;69.40;;;;;;4995122;28;92985;-73
2021/10/14 03:32:41;;;;;;;2.17;1.80;;;18.60;69.50;;;;;;4996470;28;89536;-72
2021/10/14 03:35:07;;;;;;;1.85;1.67;;;18.60;69.60;;;;;;4996834;28;88039;-72
2021/10/14 03:37:33;;;;;;;4.85;1.73;;;18.60;69.60;;;;;;4995324;28;88116;-73
2021/10/14 03:39:58;;;;;;;1.05;0.93;;;18.70;69.70;;;;;;4995349;28;88585;-72
2021/10/14 03:42:24;;;;;;;0.80;0.80;;;18.60;69.60;;;;;;4996746;28;88787;-72
2021/10/14 03:44:49;;;;;;;2.25;2.13;;;18.60;69.60;;;;;;4995284;28;88790;-72
2021/10/14 03:47:15;;;;;;;1.10;1.10;;;18.60;70.10;;;;;;4995906;28;87677;-73
2021/10/14 03:49:40;;;;;;;1.20;1.10;;;18.60;69.50;;;;;;4994498;28;105594;-72
2021/10/14 03:52:06;;;;;;;1.70;1.60;;;18.60;69.70;;;;;;4978432;28;89477;-72
2021/10/14 03:54:32;;;;;;;3.17;1.90;;;18.60;69.80;;;;;;4994445;28;89066;-73
2021/10/14 03:56:57;;;;;;;2.92;1.98;;;18.60;68.90;;;;;;4996662;28;87969;-72
2021/10/14 03:59:23;;;;;;;3.42;2.00;;;18.60;68.90;;;;;;4995730;28;88645;-72
2021/10/14 04:01:49;;;;;;;1.80;1.65;;;18.70;68.80;;;;;;4995173;28;88338;-72
2021/10/14 04:04:14;;;;;;;1.45;1.35;;;18.60;69.70;;;;;;4995656;28;88420;-72
2021/10/14 04:06:40;;;;;;;1.88;1.73;;;18.60;70.10;;;;;;4996168;28;98824;-72
2021/10/14 04:09:05;;;;;;;1.70;1.60;;;18.70;68.80;;;;;;4995150;28;94141;-72
2021/10/14 04:11:31;;;;;;;1.77;1.63;;;18.60;69.60;;;;;;4978116;28;89439;-72
2021/10/14 04:13:56;;;;;;;1.30;1.25;;;18.60;69.40;;;;;;4994077;28;109369;-71
2021/10/14 04:16:22;;;;;;;0.82;0.82;;;18.60;70.00;;;;;;4994798;28;88232;-71
2021/10/14 04:18:47;;;;;;;1.55;1.45;;;18.60;70.20;;;;;;4994990;28;106726;-71
2021/10/14 04:21:13;;;;;;;0.70;0.70;;;18.60;70.40;;;;;;4995143;28;89038;-71
2021/10/14 04:23:43;;;;;;;0.90;0.90;;;18.60;70.50;;;;;;4994707;28;88353;-71
2021/10/14 04:26:09;;;;;;;1.08;1.08;;;18.60;70.70;;;;;;5026378;27;90589;-71
2021/10/14 04:28:35;;;;;;;0.98;0.90;;;18.60;70.60;;;;;;4974772;28;91666;-71
2021/10/14 04:31:00;;;;;;;0.90;0.90;;;18.60;70.50;;;;;;4990393;28;89115;-71
2021/10/14 04:33:26;;;;;;;2.25;1.63;;;18.60;70.60;;;;;;4995406;28;97005;-71
2021/10/14 04:35:52;;;;;;;1.73;0.90;;;18.60;70.50;;;;;;4996203;28;87844;-71
2021/10/14 04:38:17;;;;;;;0.82;0.82;;;18.60;70.50;;;;;;5027800;28;99461;-70
2021/10/14 04:40:43;;;;;;;1.05;1.05;;;18.60;70.30;;;;;;5027671;28;88345;-71
2021/10/14 04:43:09;;;;;;;1.20;1.00;;;18.60;70.40;;;;;;5010637;28;89220;-71
2021/10/14 04:45:34;;;;;;;1.20;1.10;;;18.60;70.40;;;;;;4995412;28;87998;-71
2021/10/14 04:48:00;;;;;;;1.08;1.08;;;18.60;70.30;;;;;;5027740;28;99912;-71
2021/10/14 04:50:25;;;;;;;0.90;0.90;;;18.60;70.30;;;;;;4996021;28;91740;-71
2021/10/14 04:52:51;;;;;;;1.45;1.30;;;18.60;70.20;;;;;;5022125;27;88247;-71
2021/10/14 04:55:17;;;;;;;1.20;1.00;;;18.60;70.30;;;;;;5000963;28;92098;-71
2021/10/14 04:57:42;;;;;;;1.05;0.93;;;18.60;70.30;;;;;;4992260;28;88868;-72
2021/10/14 05:00:09;;;;;;;1.10;1.10;;;18.60;70.30;;;;;;4998240;28;88348;-71
2021/10/14 05:02:34;;;;;;;1.20;1.10;;;18.60;70.30;;;;;;5000345;28;88415;-71
2021/10/14 05:05:01;;;;;;;1.08;1.08;;;18.60;70.40;;;;;;4995302;28;88319;-71
2021/10/14 05:07:26;;;;;;;1.63;0.90;;;18.60;70.40;;;;;;5027138;28;89955;-71
2021/10/14 05:09:52;;;;;;;1.90;1.50;;;18.60;70.30;;;;;;5028174;27;89322;-71
2021/10/14 05:12:19;;;;;;;2.25;1.60;;;18.60;70.30;;;;;;5030544;28;88488;-71
2021/10/14 05:14:44;;;;;;;1.52;1.15;;;18.70;70.50;;;;;;4999154;28;88080;-71
2021/10/14 05:17:10;;;;;;;2.97;1.88;;;18.80;69.70;;;;;;4998648;28;100163;-71
2021/10/14 05:19:35;;;;;;;3.00;1.05;;;18.90;69.40;;;;;;4997051;28;91685;-71
2021/10/14 05:22:01;;;;;;;1.27;1.10;;;18.90;69.40;;;;;;4999077;28;88477;-71
2021/10/14 05:24:27;;;;;;;2.00;1.50;;;18.90;69.20;;;;;;4999625;28;88088;-72
2021/10/14 05:26:52;;;;;;;6.03;1.70;;;18.90;69.30;;;;;;4999141;28;88490;-71
2021/10/14 05:29:18;;;;;;;2.40;1.90;;;18.90;69.30;;;;;;4998953;28;88512;-71
2021/10/14 05:31:43;;;;;;;4.20;1.98;;;19.00;69.30;;;;;;4996764;28;92847;-70
2021/10/14 05:34:09;;;;;;;1.73;1.35;;;19.00;69.00;;;;;;4998617;28;87879;-70
2021/10/14 05:36:34;;;;;;;2.47;1.25;;;18.90;69.00;;;;;;4997012;28;88584;-71
2021/10/14 05:39:00;;;;;;;3.17;1.65;;;19.00;69.10;;;;;;4980434;28;91614;-71
2021/10/14 05:41:25;;;;;;;3.35;1.83;;;19.00;69.20;;;;;;4998777;28;88154;-71
2021/10/14 05:43:51;;;;;;;4.30;1.75;;;19.00;69.10;;;;;;4997789;28;88029;-71
2021/10/14 05:46:17;;;;;;;3.53;1.70;;;19.00;69.50;;;;;;4998419;28;88679;-71
2021/10/14 05:48:42;;;;;;;4.38;2.33;;;19.10;68.70;;;;;;4997400;28;90818;-71
2021/10/14 05:51:08;;;;;;;5.35;2.85;;;19.00;68.80;;;;;;5030449;28;101421;-71
2021/10/14 05:53:33;;;;;;;5.32;2.05;;;19.00;68.90;;;;;;5030645;28;88338;-71
2021/10/14 05:55:59;;;;;;;3.67;2.35;;;19.00;68.80;;;;;;5030384;28;89479;-71
2021/10/14 05:58:24;;;;;;;4.80;3.13;;;19.10;68.70;;;;;;5013075;28;98351;-72
2021/10/14 06:00:50;;;;;;;6.35;2.17;;;19.10;68.50;;;;;;4996959;28;88182;-71
2021/10/14 06:03:16;;;;;;;3.75;2.28;;;19.10;68.60;;;;;;4996780;28;88669;-71
2021/10/14 06:05:41;;;;;;;4.40;1.55;;;19.10;68.70;;;;;;4997843;28;92529;-71
2021/10/14 06:08:07;;;;;;;4.05;1.73;;;19.10;68.60;;;;;;4998417;28;88386;-72
2021/10/14 06:10:32;;;;;;;4.13;1.85;;;19.10;68.50;;;;;;4996589;28;88203;-71
2021/10/14 06:12:58;;;;;;;6.03;3.90;;;19.20;68.30;;;;;;5030396;27;88122;-72
2021/10/14 06:15:24;;;;;;;5.10;3.78;;;19.10;68.30;;;;;;5031475;28;91916;-72
2021/10/14 06:17:49;;;;;;;4.15;1.58;;;19.10;68.10;;;;;;5017488;28;88453;-72
2021/10/14 06:20:15;;;;;;;5.28;2.20;;;19.10;68.30;;;;;;5017168;28;90553;-71
2021/10/14 06:22:40;;;;;;;4.97;1.90;;;19.10;68.40;;;;;;4998749;28;89508;-71
2021/10/14 06:25:06;;;;;;;5.53;4.60;;;19.20;68.50;;;;;;5016447;28;88663;-72
2021/10/14 06:27:32;;;;;;;7.72;6.35;;;19.10;68.30;;;;;;5010524;28;88398;-72
2021/10/14 06:29:59;;;;;;;8.05;2.58;;;19.20;68.20;;;;;;4997734;28;88279;-72
2021/10/14 06:32:26;;;;;;;5.97;4.32;;;19.10;68.20;;;;;;5026628;27;88179;-71
2021/10/14 06:34:52;;;;;;;4.35;2.75;;;19.10;68.00;;;;;;5003055;28;88564;-71
2021/10/14 06:37:17;;;;;;;3.35;1.90;;;19.20;68.30;;;;;;5008515;28;91305;-71
2021/10/14 06:39:43;;;;;;;6.63;4.88;;;19.20;68.20;;;;;;4992539;28;96669;-71
2021/10/14 06:42:08;;;;;;;5.93;3.60;;;19.20;67.80;;;;;;4987628;28;94971;-71
2021/10/14 06:44:34;;;;;;;9.40;7.18;;;19.20;67.90;;;;;;4996667;28;97113;-72
2021/10/14 06:46:59;;;;;;;6.75;5.32;;;19.20;67.40;;;;;;5029814;28;89439;-72
2021/10/14 06:49:25;;;;;;;3.08;2.20;;;19.20;67.70;;;;;;5030024;28;88246;-72
2021/10/14 06:51:51;;;;;;;5.45;4.05;;;19.20;67.80;;;;;;5029398;28;88171;-71
2021/10/14 06:54:16;;;;;;;4.13;2.83;;;19.20;67.80;;;;;;4993382;28;88198;-71
2021/10/14 06:56:43;;;;;;;4.68;2.67;;;19.20;67.40;;;;;;5021077;27;88391;-72
2021/10/14 06:59:08;;;;;;;6.45;4.90;;;19.20;67.50;;;;;;5009814;28;89205;-71
2021/10/14 07:01:34;;;;;;;5.13;4.50;;;19.20;67.40;;;;;;5009680;27;96502;-72
2021/10/14 07:04:00;;;;;;;3.88;3.10;;;19.20;67.50;;;;;;5009411;28;88452;-71
2021/10/14 07:06:26;;;;;;;4.13;3.05;;;19.20;67.60;;;;;;4990807;28;88501;-71
2021/10/14 07:08:52;;;;;;;6.07;5.53;;;19.20;68.20;;;;;;4994970;28;89549;-71
2021/10/14 07:11:17;;;;;;;7.70;5.00;;;19.20;67.30;;;;;;4996586;28;98557;-71
2021/10/14 07:13:45;;;;;;;6.15;4.05;;;19.30;66.90;;;;;;4996469;28;89898;-71
2021/10/14 07:16:11;;;;;;;7.63;6.15;;;19.30;67.00;;;;;;4997294;28;87953;-72
2021/10/14 07:18:37;;;;;;;2.90;2.58;;;19.20;66.80;;;;;;5028767;28;88270;-72
2021/10/14 07:21:03;;;;;;;5.88;3.42;;;19.20;67.00;;;;;;4979243;28;90528;-71
2021/10/14 07:23:29;;;;;;;4.35;3.38;;;19.20;66.90;;;;;;4996418;28;98228;-72
2021/10/14 07:25:54;;;;;;;8.25;6.53;;;19.20;67.20;;;;;;4996540;28;88314;-71
2021/10/14 07:28:20;;;;;;;3.88;2.40;;;19.30;66.50;;;;;;4996082;28;88385;-71
2021/10/14 07:30:45;;;;;;;7.88;6.03;;;19.20;66.40;;;;;;4979036;28;88908;-71
2021/10/14 07:33:11;;;;;;;3.80;2.35;;;19.20;66.60;;;;;;4993406;28;111831;-71
2021/10/14 07:35:38;;;;;;;5.90;3.65;;;19.20;66.90;;;;;;4995427;28;88028;-71
2021/10/14 07:38:04;;;;;;;6.90;5.75;;;19.20;66.90;;;;;;4995876;28;87993;-71
2021/10/14 07:40:30;;;;;;;4.95;3.05;;;19.20;66.50;;;;;;4995602;28;88431;-71
2021/10/14 07:42:56;;;;;;;5.22;3.28;;;19.20;66.50;;;;;;4997002;28;88714;-71
2021/10/14 07:45:21;;;;;;;5.70;3.65;;;19.20;66.50;;;;;;4996530;28;89085;-71
2021/10/14 07:47:47;;;;;;;6.50;3.58;;;19.20;66.40;;;;;;4994881;28;87983;-71
2021/10/14 07:50:14;;;;;;;3.85;2.53;;;19.20;66.70;;;;;;5017673;28;90463;-72
2021/10/14 07:52:42;;;;;;;3.30;2.28;;;19.20;66.70;;;;;;5024232;28;91034;-71
2021/10/14 07:55:08;;;;;;;10.43;4.60;;;19.30;66.70;;;;;;4995166;28;88284;-71
2021/10/14 07:57:34;;;;;;;3.88;2.30;;;19.20;66.40;;;;;;4996113;28;88766;-71
2021/10/14 07:59:59;;;;;;;4.78;2.78;;;19.30;66.60;;;;;;4995270;28;88973;-71
2021/10/14 08:02:25;;;;;;;6.18;5.00;;;19.30;66.10;;;;;;4994456;28;102191;-71
2021/10/14 08:04:52;;;;;;;3.60;3.22;;;19.30;66.20;;;;;;4996236;28;94986;-71
2021/10/14 08:07:18;;;;;;;4.63;2.80;;;19.30;65.60;;;;;;4998591;28;88198;-71
2021/10/14 08:09:44;;;;;;;5.72;4.15;;;19.20;65.70;;;;;;4996888;28;90455;-71
2021/10/14 08:12:11;;;;;;;3.67;2.80;;;19.20;66.50;;;;;;4996121;28;88888;-71
2021/10/14 08:14:36;;;;;;;3.25;2.78;;;19.30;66.20;;;;;;5011077;28;90228;-71
2021/10/14 08:17:02;;;;;;;5.60;4.20;;;19.30;65.90;;;;;;4990558;28;91082;-72
2021/10/14 08:19:28;;;;;;;4.78;3.78;;;19.30;65.80;;;;;;4976395;28;87948;-71
2021/10/14 08:21:53;;;;;;;3.42;2.60;;;19.30;65.90;;;;;;4985454;28;90028;-70
2021/10/14 08:24:20;;;;;;;5.60;2.75;;;19.30;65.90;;;;;;4995521;28;105107;-70
2021/10/14 08:26:46;;;;;;;3.50;3.20;;;19.40;65.50;;;;;;4994815;28;88115;-70
2021/10/14 08:29:11;;;;;;;3.58;3.00;;;19.30;65.10;;;;;;4994760;28;88231;-70
2021/10/14 08:31:37;;;;;;;6.25;4.57;;;19.40;65.60;;;;;;4995625;28;88035;-70
2021/10/14 08:34:03;;;;;;;4.43;2.63;;;19.40;65.00;;;;;;4994347;28;103817;-70
2021/10/14 08:36:28;;;;;;;3.65;2.42;;;19.40;65.30;;;;;;4995833;28;88023;-72
2021/10/14 08:38:54;;;;;;;3.72;3.25;;;19.40;65.20;;;;;;4993032;28;87963;-70
2021/10/14 08:41:20;;;;;;;4.38;3.42;;;19.40;65.10;;;;;;5030019;27;89010;-70
2021/10/14 08:43:46;;;;;;;4.30;3.22;;;19.50;65.10;;;;;;4996762;28;88401;-70
2021/10/14 08:46:11;;;;;;;5.68;3.40;;;19.40;64.90;;;;;;5000533;28;89359;-70
2021/10/14 08:48:37;;;;;;;6.28;4.10;;;19.40;64.80;;;;;;4997901;28;88195;-70
2021/10/14 08:51:02;;;;;;;4.07;3.38;;;19.50;63.90;;;;;;4998115;28;88591;-70
2021/10/14 08:53:28;;;;;;;5.65;4.13;;;19.50;64.20;;;;;;4998201;28;88411;-70
2021/10/14 08:55:54;;;;;;;4.70;3.28;;;19.50;64.30;;;;;;5013903;28;92637;-70
2021/10/14 08:58:19;;;;;;;3.47;2.90;;;19.50;64.10;;;;;;4996924;28;90753;-70
2021/10/14 09:01:06;;;;;;;3.53;2.75;;;19.70;63.70;;;;;;5002640;28;93188;-75
2021/10/14 09:07:28;;;;;;;2.80;2.60;;;20.40;61.70;;;;;;5054001;27;87004;-64
2021/10/14 09:09:57;;;;;;;3.60;2.55;;;20.70;62.10;;;;;;5051952;27;87129;-63
2021/10/14 09:12:23;;;;;;;3.47;2.50;;;;;;;;;;5052617;27;87130;-67
2021/10/14 09:15:53;;;;;;;2.63;2.25;;;22.00;58.10;;;;;;5054656;27;87135;-61
2021/10/14 09:18:25;;;;;;;3.05;2.50;;;22.70;56.70;;;;;;5041972;27;87293;-69
2021/10/14 09:20:50;;;;;;;3.35;2.65;;;23.30;56.00;;;;;;4907408;27;87095;-68
2021/10/14 09:23:17;;;;;;;3.83;2.80;;;23.90;54.40;;;;;;5001782;28;87526;-64
2021/10/14 09:25:43;;;;;;;3.53;2.30;;;24.40;52.80;;;;;;5012208;28;87034;-65
2021/10/14 09:28:25;;;;;;;2.53;2.33;;;24.50;52.40;;;;;;5014273;28;88048;-65
2021/10/14 09:31:02;;;;;;;3.40;2.42;;;24.60;51.80;;;;;;5011031;28;87273;-68
2021/10/14 09:33:46;;;;;;;2.97;2.70;;;24.90;51.60;;;;;;5009964;28;87598;-68
2021/10/14 09:36:22;;;;;;;3.92;3.05;;;;;;;;;;4965341;27;93768;-66
2021/10/14 09:38:51;;;;;;;3.05;2.10;;;24.60;50.70;;;;;;4982217;27;95149;-74
2021/10/14 09:41:18;;;;;;;4.82;3.00;;;23.50;53.20;;;;;;4973119;27;90957;-66
2021/10/14 09:43:45;;;;;;;2.78;2.58;;;22.90;55.20;;;;;;4929374;27;95861;-68
2021/10/14 09:46:11;;;;;;;3.10;2.80;;;;;;;;;;5001950;28;87189;-77
2021/10/14 09:48:41;;;;;;;2.83;2.60;;;22.70;57.10;;;;;;5001629;28;87031;-72
2021/10/14 09:51:07;;;;;;;6.38;2.67;;;22.40;57.20;;;;;;5011906;28;87996;-71
2021/10/14 09:53:33;;;;;;;3.97;2.40;;;22.10;58.40;;;;;;5004429;28;90320;-64
2021/10/14 09:55:59;;;;;;;3.22;2.75;;;22.00;58.60;;;;;;4904357;27;87838;-66
2021/10/14 09:58:25;;;;;;;2.92;2.60;;;21.90;58.90;;;;;;4994940;28;87227;-64
2021/10/14 10:00:51;;;;;;;3.75;2.60;;;21.90;59.10;;;;;;4998578;28;87380;-64
2021/10/14 10:03:21;;;;;;;3.58;2.72;;;21.80;59.30;;;;;;5008353;28;88996;-68
2021/10/14 10:06:01;;;;;;;3.10;2.50;;;21.90;59.40;;;;;;5000040;27;98767;-72
2021/10/14 10:08:30;;;;;;;3.40;2.47;;;22.10;58.90;;;;;;4924006;27;87258;-72
2021/10/14 10:12:27;;;;;;;2.95;2.30;;;22.00;58.90;;;;;;4836898;27;88453;-69
2021/10/14 10:14:54;;;;;;;2.65;2.30;;;22.10;58.90;;;;;;4912417;28;88323;-69
2021/10/14 10:17:55;;;;;;;2.78;2.38;;;22.10;59.10;;;;;;4978875;27;88541;-71
2021/10/14 10:21:41;;;;;;;2.88;2.55;;;22.10;58.50;;;;;;5113900;27;87058;-68
2021/10/14 10:24:08;;;;;;;;;;;22.20;59.00;;;;;;4980543;27;164890;-71
2021/10/14 10:26:48;;;;;;;3.40;2.80;;;22.20;58.90;;;;;;5075900;27;87943;-70
2021/10/14 10:29:36;;;;;;;3.28;2.78;;;22.10;59.00;;;;;;5079689;27;89063;-71
2021/10/14 10:32:27;;;;;;;3.25;2.50;;;22.10;59.10;;;;;;5083127;27;88470;-65
2021/10/14 10:35:04;;;;;;;2.80;2.60;;;22.10;59.10;;;;;;5075710;27;88355;-71
2021/10/14 10:37:37;;;;;;;3.25;2.97;;;22.00;59.20;;;;;;5087413;27;87164;-72
2021/10/14 10:40:11;;;;;;;2.70;2.50;;;22.00;59.30;;;;;;5082793;27;88022;-67
2021/10/14 10:42:39;;;;;;;4.15;2.90;;;21.90;59.30;;;;;;5089026;27;88832;-72
2021/10/14 10:45:07;;;;;;;3.22;2.53;;;21.80;59.40;;;;;;5078058;27;87290;-72
2021/10/14 10:47:45;;;;;;;3.50;3.20;;;21.80;59.40;;;;;;5071120;27;88086;-72
2021/10/14 10:50:14;;;;;;;3.80;3.10;;;21.70;59.60;;;;;;5070925;27;88895;-72
2021/10/14 10:52:44;;;;;;;2.70;2.50;;;21.70;59.60;;;;;;5087390;27;87877;-72
2021/10/14 10:55:41;;;;;;;3.08;2.75;;;21.60;59.70;;;;;;5071560;27;87646;-72
2021/10/14 10:58:09;;;;;;;3.30;3.08;;;21.60;59.60;;;;;;5073857;27;88012;-72
2021/10/14 11:00:37;;;;;;;3.22;2.95;;;21.50;59.60;;;;;;5072163;27;89266;-72
2021/10/14 11:03:08;;;;;;;3.13;2.80;;;21.50;59.60;;;;;;5073509;27;87105;-72
2021/10/14 11:05:40;;;;;;;3.72;3.22;;;21.50;59.80;;;;;;5079155;27;88270;-72
2021/10/14 11:08:09;;;;;;;4.63;3.28;;;21.40;59.80;;;;;;5073539;27;88099;-72
2021/10/14 11:10:36;;;;;;;3.88;3.58;;;21.40;59.90;;;;;;5074051;27;89178;-72
2021/10/14 11:13:03;;;;;;;3.70;2.92;;;21.40;59.70;;;;;;5073841;27;88566;-72
2021/10/14 11:15:30;;;;;;;3.20;2.90;;;21.40;59.70;;;;;;5074042;27;88211;-72
2021/10/14 11:18:03;;;;;;;3.80;3.47;;;21.40;59.80;;;;;;5073029;27;88152;-72
2021/10/14 11:20:30;;;;;;;;;;;21.30;59.80;;;;;;5073657;27;89165;-72
2021/10/14 11:23:04;;;;;;;4.03;3.72;;;21.30;59.90;;;;;;5075283;27;88563;-72
2021/10/14 11:25:33;;;;;;;3.65;3.35;;;21.30;59.80;;;;;;5074438;27;87655;-72
2021/10/14 11:28:04;;;;;;;3.95;3.45;;;21.30;60.00;;;;;;5074040;27;87899;-72
2021/10/14 11:30:39;;;;;;;3.40;2.70;;;21.20;60.50;;;;;;5072579;27;89180;-72
2021/10/14 11:33:12;;;;;;;3.75;3.03;;;21.20;59.90;;;;;;5067528;27;89207;-72
2021/10/14 11:35:40;;;;;;;3.22;2.78;;;21.20;59.90;;;;;;5059497;27;88342;-72
2021/10/14 11:38:09;;;;;;;3.80;2.80;;;21.10;59.80;;;;;;5059517;27;86938;-72
2021/10/14 11:40:38;;;;;;;2.95;2.67;;;21.20;59.80;;;;;;5059650;27;89147;-72
2021/10/14 11:43:05;;;;;;;2.80;2.53;;;21.20;59.90;;;;;;5060177;27;88694;-72
2021/10/14 11:45:32;;;;;;;3.22;2.92;;;21.10;59.90;;;;;;5062154;27;88879;-72
2021/10/14 11:47:59;;;;;;;2.85;2.60;;;21.10;59.90;;;;;;5065685;27;87046;-72
2021/10/14 11:50:27;;;;;;;3.22;2.92;;;21.10;59.90;;;;;;5058985;27;89133;-72
2021/10/14 11:53:01;;;;;;;3.30;3.00;;;21.10;59.80;;;;;;5059426;27;88598;-72
2021/10/14 11:55:28;;;;;;;3.40;3.10;;;21.10;59.80;;;;;;5062533;27;88539;-72
2021/10/14 11:57:59;;;;;;;2.92;2.72;;;21.10;59.70;;;;;;5053739;27;87946;-72
2021/10/14 12:00:26;;;;;;;3.63;3.33;;;21.00;59.70;;;;;;5055493;27;88149;-72
2021/10/14 12:02:53;;;;;;;2.83;2.63;;;21.00;59.70;;;;;;5054834;27;89705;-72
2021/10/14 12:05:21;;;;;;;3.65;3.33;;;21.00;59.80;;;;;;5052847;27;90371;-72
2021/10/14 12:07:49;;;;;;;4.13;3.83;;;21.00;59.90;;;;;;5068408;27;88094;-71
2021/10/14 12:10:34;;;;;;;3.08;2.78;;;21.00;60.50;;;;;;5061543;27;89228;-72
2021/10/14 12:13:05;;;;;;;4.90;3.50;;;21.00;59.90;;;;;;5039305;28;89610;-72
2021/10/14 12:15:32;;;;;;;4.00;3.17;;;21.00;59.90;;;;;;5040367;27;88780;-72
2021/10/14 12:17:59;;;;;;;2.80;2.60;;;20.90;59.80;;;;;;5039701;27;87036;-72
2021/10/14 12:20:27;;;;;;;2.75;2.50;;;20.90;60.00;;;;;;5032746;27;89064;-72
2021/10/14 12:22:55;;;;;;;3.30;3.00;;;20.90;60.00;;;;;;5036473;28;87934;-72
2021/10/14 12:25:23;;;;;;;3.33;2.90;;;20.90;60.00;;;;;;5031740;28;90427;-72
2021/10/14 12:27:51;;;;;;;3.10;2.80;;;20.90;60.00;;;;;;5022532;28;87928;-72
2021/10/14 12:30:21;;;;;;;3.17;2.70;;;20.90;59.90;;;;;;5025540;28;90593;-72
2021/10/14 12:32:47;;;;;;;3.00;2.70;;;20.90;59.80;;;;;;5035176;28;91100;-72
2021/10/14 12:35:14;;;;;;;3.38;3.10;;;20.90;59.80;;;;;;5019605;28;88321;-72
2021/10/14 12:37:41;;;;;;;3.80;2.70;;;20.90;59.80;;;;;;5034638;28;88084;-72
2021/10/14 12:40:18;;;;;;;3.03;2.83;;;20.90;59.80;;;;;;5022231;28;89120;-72
2021/10/14 12:42:59;;;;;;;2.92;2.72;;;20.90;59.80;;;;;;5024176;28;88363;-72
2021/10/14 12:48:20;;;;;;;3.88;3.28;;;20.90;59.80;;;;;;4990882;28;86894;-72
2021/10/14 12:51:05;;;;;;;3.83;3.53;;;20.90;59.90;;;;;;5028831;28;88825;-72
2021/10/14 12:53:37;;;;;;;3.28;2.97;;;20.80;59.90;;;;;;5032460;28;88589;-72
2021/10/14 12:56:04;;;;;;;3.45;2.78;;;20.80;60.00;;;;;;5033356;28;88512;-72
2021/10/14 12:58:31;;;;;;;3.55;2.95;;;20.80;59.80;;;;;;5026590;28;87941;-71